Decoded Metar for UHMM (MAGADAN in RUSSIA) (IATA:GDX) | Meteo·Mobile Aviation Weather
aviador You're here:

UHMM Decoded Metar

MAGADAN in RUSSIA
Report Time2018-12-10 10:00:00
UTC Time2018-12-10 10:26:49
Flight Rules vfr VFR
Wind360° at 8 Gusting to 17 kt
W.Decomp.*RWY 28: 8.0 kt RCW
Visibility9999 m
Phenomena:N/A
Clouds:N/A
Expected CloudBase > 3,600 ft AGL from Temp-Dew spread
CeilingNone
Temp-13°C (ISA -27)
Dew Point-22°C (47% RH)
AAT-19.5°C
QNH1010 hPa
Density Alt-2,920 ft
Elevation387 ft
Report Wrong Elevation
Raw Report
METAR UHMM 101000Z 36004G09MPS 9999 NSC M13/M22 Q1010 R10/85//40 NOSIG
RMK QFE743=

Extra information for UHMM:More info

Metar Taf Metar & Taf Last 4 Metars F.Rules Stats Wind Profile Meteogram Temp Stats Airport Information Weather charts Add Link Nearby VenuesMetar ALERT Operation Metar Decoded Social comments